Time;durP1;ratioP1;P1;durP2;ratioP2;P2;SDS_P1;SDS_P2;PMS_P1;PMS_P2;Temp;Humidity;BMP_temperature;BMP_pressure;BME280_temperature;BME280_humidity;BME280_pressure;Samples;Min_cycle;Max_cycle;Signal;HPM_P1;HPM_P2
2023/06/13 00:01:27;;;;;;;3.30;2.10;;;;;;;17.16;39.69;99702.97;10552661;27;20044;-64
2023/06/13 00:06:30;;;;;;;3.63;1.95;;;;;;;17.07;39.79;99704.63;10573651;27;20510;-64
2023/06/13 00:11:31;;;;;;;3.67;1.83;;;;;;;17.21;39.61;99706.84;10551652;28;20162;-64
2023/06/13 00:16:33;;;;;;;3.08;1.83;;;;;;;17.27;39.54;99706.28;10552877;28;20174;-64
2023/06/13 00:21:40;;;;;;;3.35;1.92;;;;;;;17.32;39.56;99709.38;10572567;28;20061;-63
2023/06/13 00:26:41;;;;;;;3.22;2.00;;;;;;;17.22;39.77;99705.84;10594750;28;20147;-64
2023/06/13 00:31:43;;;;;;;4.50;2.10;;;;;;;17.07;40.21;99706.41;10580134;27;20652;-64
2023/06/13 00:36:45;;;;;;;3.75;2.10;;;;;;;17.08;40.02;99714.19;10550217;28;20916;-64
2023/06/13 00:41:47;;;;;;;3.90;2.10;;;;;;;17.12;40.04;99712.13;10551646;28;20047;-64
2023/06/13 00:46:49;;;;;;;4.03;2.13;;;;;;;16.94;40.61;99712.81;10546729;28;20499;-63
2023/06/13 00:51:51;;;;;;;3.22;1.90;;;;;;;16.49;42.28;99708.94;10570986;28;20043;-64
2023/06/13 00:56:53;;;;;;;3.58;2.08;;;;;;;16.38;43.05;99710.81;10550795;28;20563;-64
2023/06/13 01:01:56;;;;;;;3.78;2.17;;;;;;;16.26;43.28;99706.63;10575828;27;20100;-64
2023/06/13 01:07:00;;;;;;;3.47;2.17;;;;;;;16.10;43.62;99710.56;10558596;28;20051;-64
2023/06/13 01:12:13;;;;;;;3.78;2.35;;;;;;;15.87;45.28;99706.44;10572561;27;20456;-64
2023/06/13 01:17:27;;;;;;;4.88;2.38;;;;;;;15.82;45.77;99716.53;10558641;28;20048;-64
2023/06/13 01:22:54;;;;;;;3.35;2.13;;;;;;;15.50;47.04;99713.13;10556542;27;20102;-64
2023/06/13 01:27:57;;;;;;;5.03;2.22;;;;;;;15.22;46.38;99706.66;10553528;27;20119;-64
2023/06/13 01:33:01;;;;;;;3.25;1.90;;;;;;;15.13;46.72;99703.91;10582182;27;20047;-64
2023/06/13 01:38:06;;;;;;;4.38;2.45;;;;;;;14.84;47.71;99705.47;10568948;27;20050;-65
2023/06/13 01:43:08;;;;;;;3.58;2.13;;;;;;;14.79;47.20;99705.84;10599325;27;20410;-64
2023/06/13 01:48:17;;;;;;;3.53;1.98;;;;;;;14.81;47.74;99708.34;10561439;27;20083;-64
2023/06/13 01:53:32;;;;;;;3.60;2.13;;;;;;;14.30;49.44;99706.25;10583718;27;20332;-64
2023/06/13 01:58:50;;;;;;;4.50;2.17;;;;;;;14.17;50.30;99702.88;10592297;27;21011;-64
2023/06/13 02:03:53;;;;;;;3.45;2.08;;;;;;;14.27;48.48;99706.47;10585778;27;20167;-64
2023/06/13 02:08:56;;;;;;;4.38;2.50;;;;;;;14.50;48.44;99710.78;10601588;27;20039;-64
2023/06/13 02:13:58;;;;;;;3.60;2.05;;;;;;;14.60;48.43;99705.63;10563097;27;20556;-64
2023/06/13 02:19:00;;;;;;;4.22;2.38;;;;;;;14.35;48.89;99709.31;10585401;27;20055;-64
2023/06/13 02:24:02;;;;;;;5.07;2.20;;;;;;;14.36;48.78;99710.16;10562695;28;20047;-63
2023/06/13 02:29:04;;;;;;;3.97;2.25;;;;;;;14.33;49.06;99711.25;10584885;27;20104;-63
2023/06/13 02:34:06;;;;;;;3.78;2.17;;;;;;;14.16;49.40;99714.38;10562297;27;20097;-63
2023/06/13 02:39:08;;;;;;;4.43;2.40;;;;;;;14.02;49.78;99706.72;10544396;28;20044;-63
2023/06/13 02:44:10;;;;;;;4.75;2.45;;;;;;;14.09;49.73;99701.78;10560465;28;20065;-63
2023/06/13 02:49:11;;;;;;;5.78;2.50;;;;;;;14.08;49.44;99706.25;10584909;27;20143;-63
2023/06/13 02:54:13;;;;;;;3.40;2.15;;;;;;;13.71;50.03;99704.75;10595982;27;20526;-63
2023/06/13 02:59:15;;;;;;;4.50;2.20;;;;;;;13.65;50.02;99715.75;10578314;27;20476;-63
2023/06/13 03:04:18;;;;;;;3.30;2.05;;;;;;;13.81;50.02;99715.41;10574328;27;20046;-63
2023/06/13 03:09:21;;;;;;;5.40;2.60;;;;;;;13.95;49.78;99712.56;10550955;27;20051;-63
2023/06/13 03:14:23;;;;;;;4.22;2.30;;;;;;;13.86;49.49;99711.47;10563561;27;20513;-64
2023/06/13 03:19:26;;;;;;;4.38;2.33;;;;;;;13.78;49.59;99708.56;10591397;27;20051;-63
2023/06/13 03:24:32;;;;;;;4.90;2.40;;;;;;;13.85;49.88;99714.22;10587328;27;20129;-63
2023/06/13 03:29:34;;;;;;;5.53;2.30;;;;;;;13.75;49.75;99708.81;10593201;27;20049;-63
2023/06/13 03:34:38;;;;;;;5.90;2.50;;;;;;;13.78;49.78;99711.22;10578646;27;20088;-63
2023/06/13 03:39:42;;;;;;;3.78;2.05;;;;;;;13.62;50.09;99708.06;10551141;28;20127;-63
2023/06/13 03:44:48;;;;;;;5.15;2.58;;;;;;;13.59;49.95;99701.28;10563420;27;20306;-63
2023/06/13 03:49:50;;;;;;;5.35;2.72;;;;;;;13.60;50.00;99707.34;10593112;27;20571;-63
2023/06/13 03:54:52;;;;;;;5.43;2.55;;;;;;;13.37;50.55;99701.16;10581743;27;20088;-63
2023/06/13 03:59:55;;;;;;;4.00;2.40;;;;;;;13.40;51.05;99705.34;10592699;27;20047;-63
2023/06/13 04:04:57;;;;;;;5.15;2.20;;;;;;;13.45;51.01;99708.53;10588789;27;20060;-63
2023/06/13 04:10:01;;;;;;;4.95;2.30;;;;;;;14.75;50.41;99708.84;10534097;28;20086;-64
2023/06/13 04:15:04;;;;;;;4.38;2.30;;;;;;;17.44;45.68;99703.00;10554441;28;20044;-63
2023/06/13 04:20:06;;;;;;;4.68;2.30;;;;;;;19.70;42.15;99701.25;10550686;28;20165;-63
2023/06/13 04:25:10;;;;;;;3.75;2.22;;;;;;;21.25;39.84;99696.44;10564801;28;20039;-63
2023/06/13 04:30:12;;;;;;;3.65;2.17;;;;;;;22.72;37.29;99699.50;10592914;28;20051;-64
2023/06/13 04:35:17;;;;;;;2.95;1.95;;;;;;;23.42;36.37;99703.75;10569341;27;20048;-64
2023/06/13 04:40:20;;;;;;;4.20;2.17;;;;;;;24.53;34.69;99710.81;10578561;27;20429;-64
2023/06/13 04:45:21;;;;;;;3.33;2.00;;;;;;;25.52;33.63;99704.75;10576300;27;20520;-64
2023/06/13 04:50:25;;;;;;;3.78;2.17;;;;;;;26.41;32.22;99706.66;10560752;27;20403;-64
2023/06/13 04:55:32;;;;;;;3.95;2.10;;;;;;;26.97;30.93;99701.94;10555987;27;20115;-64
2023/06/13 05:00:34;;;;;;;2.58;1.77;;;;;;;28.15;29.52;99710.94;10558439;27;20040;-61
2023/06/13 05:05:36;;;;;;;5.35;2.10;;;;;;;29.36;28.19;99710.84;10597167;27;20432;-64
2023/06/13 05:10:37;;;;;;;3.75;2.03;;;;;;;29.78;26.90;99702.06;10571132;27;20154;-64
2023/06/13 05:15:42;;;;;;;4.07;2.10;;;;;;;31.18;25.64;99701.13;10564226;27;20040;-63
2023/06/13 05:20:45;;;;;;;5.22;2.10;;;;;;;32.19;24.14;99705.28;10564990;27;20130;-64
2023/06/13 05:25:48;;;;;;;5.55;2.25;;;;;;;33.00;23.18;99701.59;10573884;27;20059;-62
2023/06/13 05:30:51;;;;;;;3.53;2.00;;;;;;;30.96;23.84;99710.75;10551069;27;20061;-62
2023/06/13 05:35:53;;;;;;;2.90;1.80;;;;;;;27.87;26.25;99721.13;10566462;27;20399;-64
2023/06/13 05:40:59;;;;;;;3.70;1.90;;;;;;;25.82;28.30;99730.34;10562792;27;20494;-64
2023/06/13 05:46:00;;;;;;;3.90;2.17;;;;;;;24.41;29.72;99735.56;10559743;27;20563;-64
2023/06/13 05:51:03;;;;;;;4.43;2.10;;;;;;;23.03;31.28;99735.03;10571926;27;20859;-63
2023/06/13 05:56:06;;;;;;;2.95;1.85;;;;;;;22.33;32.16;99747.47;10566345;27;20847;-63
2023/06/13 06:01:10;;;;;;;4.65;2.65;;;;;;;21.94;32.45;99736.72;10564378;27;20175;-63
2023/06/13 06:06:12;;;;;;;5.07;2.30;;;;;;;21.59;33.48;99742.38;10569649;27;20550;-63
2023/06/13 06:11:14;;;;;;;4.35;2.17;;;;;;;21.53;33.69;99745.72;10564833;27;20428;-63
2023/06/13 06:16:16;;;;;;;3.78;2.20;;;;;;;21.42;33.91;99748.69;10562424;27;20052;-63
2023/06/13 06:21:18;;;;;;;4.32;2.30;;;;;;;21.42;34.39;99743.34;10569843;27;20486;-63
2023/06/13 06:26:22;;;;;;;3.50;2.08;;;;;;;21.69;34.59;99743.88;10565738;27;20560;-64
2023/06/13 06:31:24;;;;;;;4.18;2.22;;;;;;;21.96;34.03;99734.72;10565269;27;20043;-66
2023/06/13 06:36:26;;;;;;;4.32;2.63;;;;;;;22.10;34.03;99741.19;10553017;27;20047;-64
2023/06/13 06:41:27;;;;;;;5.05;2.10;;;;;;;22.29;33.66;99738.97;10568929;27;20104;-64
2023/06/13 06:46:29;;;;;;;3.05;1.90;;;;;;;22.82;32.99;99732.16;10579999;27;20116;-64
2023/06/13 06:51:31;;;;;;;4.45;2.10;;;;;;;24.11;32.22;99732.03;10545473;27;20582;-64
2023/06/13 06:56:33;;;;;;;3.75;1.90;;;;;;;24.68;30.78;99725.00;10580696;27;20039;-64
2023/06/13 07:01:35;;;;;;;3.83;2.03;;;;;;;26.61;30.13;99721.00;10567600;27;20475;-63
2023/06/13 07:06:37;;;;;;;3.70;2.10;;;;;;;27.99;28.35;99716.78;10547113;27;20810;-64
2023/06/13 07:11:39;;;;;;;3.22;2.00;;;;;;;28.85;27.14;99708.28;10561202;27;20101;-64
2023/06/13 07:16:41;;;;;;;3.80;1.80;;;;;;;29.63;25.32;99701.56;10560967;27;20455;-62
2023/06/13 07:21:43;;;;;;;6.25;1.73;;;;;;;28.89;25.15;99706.78;10573554;27;20066;-60
2023/06/13 07:26:45;;;;;;;3.53;1.90;;;;;;;29.31;25.08;99701.78;10560125;27;20495;-60
2023/06/13 07:31:46;;;;;;;2.58;1.65;;;;;;;29.41;25.00;99703.00;10553048;27;20044;-60
2023/06/13 07:36:48;;;;;;;3.60;1.90;;;;;;;29.38;24.21;99707.97;10557660;27;20056;-62
2023/06/13 07:41:50;;;;;;;3.00;1.80;;;;;;;28.99;22.87;99714.44;10556144;27;20092;-60
2023/06/13 07:46:52;;;;;;;2.78;1.60;;;;;;;29.45;23.48;99704.22;10571735;27;20142;-60
2023/06/13 07:51:54;;;;;;;3.92;2.00;;;;;;;29.32;22.83;99711.50;10558605;27;20077;-61
2023/06/13 07:56:57;;;;;;;2.78;1.70;;;;;;;29.75;23.57;99689.03;10551401;27;20460;-60
2023/06/13 08:02:02;;;;;;;2.72;1.67;;;;;;;29.58;23.17;99689.81;10569869;27;20077;-60
2023/06/13 08:07:04;;;;;;;2.97;1.63;;;;;;;29.21;23.19;99690.66;10556610;27;20197;-60
2023/06/13 08:12:06;;;;;;;3.08;1.88;;;;;;;29.05;23.82;99687.44;10556538;27;20108;-63
2023/06/13 08:17:08;;;;;;;2.90;1.75;;;;;;;28.37;23.44;99685.47;10567123;28;20088;-61
2023/06/13 08:22:10;;;;;;;3.03;1.63;;;;;;;28.24;24.53;99682.78;10563101;27;20192;-62
2023/06/13 08:27:15;;;;;;;4.32;1.95;;;;;;;28.52;23.98;99685.22;10545368;28;20068;-61
2023/06/13 08:32:17;;;;;;;2.50;1.60;;;;;;;28.17;24.28;99681.97;10574751;27;20445;-60
2023/06/13 08:37:18;;;;;;;3.30;1.92;;;;;;;28.58;23.99;99673.59;10567679;28;20047;-62
2023/06/13 08:42:21;;;;;;;3.33;1.80;;;;;;;29.17;23.23;99655.28;10561262;27;20144;-63
2023/06/13 08:47:23;;;;;;;3.25;1.73;;;;;;;29.21;22.89;99655.66;10552636;28;20123;-62
2023/06/13 08:52:38;;;;;;;2.97;1.75;;;;;;;29.83;20.36;99652.84;10557926;28;20051;-62
2023/06/13 08:57:41;;;;;;;2.58;1.70;;;;;;;30.48;20.66;99652.19;10561825;28;20051;-60
2023/06/13 09:02:45;;;;;;;4.63;1.70;;;;;;;29.00;19.12;99663.03;10550262;27;20032;-62
2023/06/13 09:07:49;;;;;;;3.95;1.58;;;;;;;28.65;20.71;99636.69;10547683;28;20071;-61
2023/06/13 09:12:52;;;;;;;2.47;1.60;;;;;;;28.63;19.64;99642.31;10575553;28;20638;-60
2023/06/13 09:17:55;;;;;;;2.60;1.60;;;;;;;28.69;20.59;99641.44;10563842;27;20073;-61
2023/06/13 09:23:02;;;;;;;4.53;1.83;;;;;;;28.65;19.86;99640.22;10577272;27;20844;-60
2023/06/13 09:28:26;;;;;;;3.35;1.88;;;;;;;27.83;19.57;99645.44;10597138;27;20047;-61
2023/06/13 09:33:27;;;;;;;2.65;1.60;;;;;;;28.18;20.14;99637.91;10569857;27;20074;-61
2023/06/13 09:38:34;;;;;;;2.22;1.48;;;;;;;28.37;19.39;99638.91;10594387;27;20146;-60
2023/06/13 09:43:37;;;;;;;3.15;1.80;;;;;;;28.08;19.36;99650.97;10589284;27;20104;-61
2023/06/13 09:48:45;;;;;;;2.53;1.50;;;;;;;27.93;19.61;99642.34;10593067;27;20499;-60
2023/06/13 09:53:47;;;;;;;3.23;1.60;;;;;;;28.10;20.12;99630.06;10568242;27;20191;-60
2023/06/13 09:58:52;;;;;;;3.17;1.80;;;;;;;28.65;20.14;99626.78;10553685;27;20101;-60
2023/06/13 10:03:55;;;;;;;3.33;1.70;;;;;;;29.06;19.99;99616.41;10589381;27;20043;-60
2023/06/13 10:08:57;;;;;;;2.67;1.70;;;;;;;29.18;20.01;99612.97;10591500;27;20051;-60
2023/06/13 10:14:05;;;;;;;2.42;1.50;;;;;;;28.24;19.83;99602.09;10584934;27;20173;-60
2023/06/13 10:19:09;;;;;;;2.53;1.67;;;;;;;27.90;19.86;99595.19;10578954;27;20052;-60
2023/06/13 10:24:13;;;;;;;3.22;1.92;;;;;;;27.80;18.71;99615.47;10587708;27;20048;-60
2023/06/13 10:29:33;;;;;;;4.55;1.70;;;;;;;27.97;18.89;99603.25;10565959;27;20052;-60
2023/06/13 10:34:43;;;;;;;3.05;1.70;;;;;;;27.76;20.12;99614.25;10585678;27;20047;-60
2023/06/13 10:40:15;;;;;;;2.65;1.65;;;;;;;27.83;19.76;99604.31;10592609;27;20043;-60
2023/06/13 10:45:23;;;;;;;2.55;1.50;;;;;;;27.42;20.96;99605.34;10584580;27;20424;-60
2023/06/13 10:50:26;;;;;;;2.15;1.48;;;;;;;27.03;21.53;99599.97;10551565;27;20062;-60
2023/06/13 10:55:29;;;;;;;3.10;1.73;;;;;;;26.55;21.00;99604.63;10592195;27;20104;-60
2023/06/13 11:00:34;;;;;;;2.30;1.52;;;;;;;26.47;21.87;99579.78;10581612;27;20127;-60
2023/06/13 11:05:47;;;;;;;3.67;1.70;;;;;;;26.13;22.12;99585.25;10587852;27;20118;-60
2023/06/13 11:10:52;;;;;;;3.40;1.75;;;;;;;26.36;21.55;99575.88;10554369;27;20871;-60
2023/06/13 11:15:57;;;;;;;2.78;1.70;;;;;;;26.39;21.58;99580.81;10555959;27;20359;-60
2023/06/13 11:21:00;;;;;;;3.35;1.88;;;;;;;26.48;21.57;99570.75;10557855;27;20212;-60
2023/06/13 11:26:03;;;;;;;3.10;1.90;;;;;;;25.97;21.33;99577.53;10588480;27;20043;-60
2023/06/13 11:31:06;;;;;;;2.58;1.70;;;;;;;25.74;21.86;99559.88;10557395;27;20116;-61
2023/06/13 11:36:09;;;;;;;3.42;1.77;;;;;;;26.06;21.53;99571.81;10589984;27;20043;-60
2023/06/13 11:41:11;;;;;;;2.38;1.67;;;;;;;26.23;21.71;99557.03;10545044;27;20555;-60
2023/06/13 11:46:13;;;;;;;2.80;1.67;;;;;;;26.33;21.67;99562.00;10586061;27;20079;-60
2023/06/13 11:51:15;;;;;;;2.75;1.77;;;;;;;26.55;21.22;99553.66;10558065;27;20039;-60
2023/06/13 11:56:18;;;;;;;3.35;1.80;;;;;;;26.49;21.34;99556.28;10578764;27;20511;-60
2023/06/13 12:01:23;;;;;;;2.78;1.60;;;;;;;26.19;21.58;99546.91;10552970;27;20506;-60
2023/06/13 12:06:28;;;;;;;2.72;1.55;;;;;;;26.18;21.88;99542.59;10562638;27;20812;-60
2023/06/13 12:11:31;;;;;;;2.50;1.60;;;;;;;26.18;21.35;99553.31;10580690;27;20524;-60
2023/06/13 12:16:35;;;;;;;3.17;1.70;;;;;;;26.02;22.51;99532.22;10548238;27;20083;-60
2023/06/13 12:21:40;;;;;;;2.53;1.70;;;;;;;25.97;22.11;99537.34;10554466;28;20128;-60
2023/06/13 12:26:44;;;;;;;2.78;1.77;;;;;;;26.42;21.74;99532.16;10589869;27;20040;-60
2023/06/13 12:31:47;;;;;;;2.75;1.70;;;;;;;26.40;22.14;99520.81;10556036;27;20199;-60
2023/06/13 12:36:50;;;;;;;3.53;1.83;;;;;;;26.35;22.22;99523.25;10541922;28;20745;-60
2023/06/13 12:41:52;;;;;;;3.13;1.73;;;;;;;26.50;22.12;99515.03;10553275;28;20047;-60
2023/06/13 12:46:56;;;;;;;3.67;1.92;;;;;;;26.66;21.90;99510.16;10548087;28;20134;-61
2023/06/13 12:51:58;;;;;;;3.10;1.75;;;;;;;26.78;22.02;99506.84;10570142;28;20053;-60
2023/06/13 12:57:09;;;;;;;2.85;1.80;;;;;;;26.50;21.65;99498.94;10572357;27;20047;-60
2023/06/13 13:02:19;;;;;;;5.88;1.88;;;;;;;26.81;21.70;99480.44;10559944;27;20352;-61
2023/06/13 13:07:23;;;;;;;3.67;2.20;;;;;;;26.71;21.47;99482.69;10572431;27;20066;-61
2023/06/13 13:12:25;;;;;;;3.92;1.98;;;;;;;26.50;21.75;99477.50;10559865;27;20478;-61
2023/06/13 13:17:27;;;;;;;2.78;1.83;;;;;;;26.63;21.74;99478.34;10568304;27;20520;-63
2023/06/13 13:22:29;;;;;;;3.85;1.90;;;;;;;26.97;21.70;99473.81;10563611;27;20044;-61
2023/06/13 13:27:32;;;;;;;3.30;1.90;;;;;;;26.68;21.79;99465.16;10578814;27;20085;-61
2023/06/13 13:32:33;;;;;;;2.65;1.63;;;;;;;26.67;21.73;99468.03;10565427;27;20147;-62
2023/06/13 13:37:35;;;;;;;3.20;1.60;;;;;;;26.87;21.95;99463.50;10559889;27;20519;-63
2023/06/13 13:42:38;;;;;;;2.97;1.67;;;;;;;27.11;21.33;99464.72;10564577;27;20126;-61
2023/06/13 18:02:11;;;;;;;3.60;1.60;;;;;;;23.26;25.25;99391.66;10582628;27;20138;-66
2023/06/13 18:07:13;;;;;;;3.03;1.77;;;;;;;23.85;25.17;99395.91;10582869;27;20048;-67
2023/06/13 18:12:15;;;;;;;3.47;1.70;;;;;;;24.26;24.73;99396.97;10583207;28;20084;-67
2023/06/13 18:17:23;;;;;;;2.80;1.77;;;;;;;24.48;24.38;99392.41;10559447;27;20047;-67
2023/06/13 18:22:25;;;;;;;3.22;1.80;;;;;;;24.52;23.51;99411.56;10579786;27;20053;-67
2023/06/13 18:27:26;;;;;;;2.92;1.80;;;;;;;24.58;24.04;99400.09;10582847;28;20070;-61
2023/06/13 18:32:28;;;;;;;5.25;1.70;;;;;;;24.47;23.98;99406.00;10578749;27;20079;-61
2023/06/13 18:37:30;;;;;;;3.17;1.80;;;;;;;24.42;23.88;99408.41;10562729;27;20488;-61
2023/06/13 18:42:32;;;;;;;4.38;1.88;;;;;;;24.32;23.98;99408.75;10562829;28;20559;-61
2023/06/13 18:47:34;;;;;;;3.30;1.65;;;;;;;24.09;24.11;99410.75;10579151;27;20185;-61
2023/06/13 18:52:37;;;;;;;3.17;1.63;;;;;;;24.02;24.15;99404.50;10557741;28;20043;-59
2023/06/13 18:57:39;;;;;;;3.58;1.83;;;;;;;24.01;24.08;99411.69;10549122;27;20058;-59
2023/06/13 19:02:41;;;;;;;4.97;1.70;;;;;;;23.82;24.52;99419.50;10561062;27;20043;-60
2023/06/13 19:07:43;;;;;;;3.55;1.80;;;;;;;23.65;24.71;99421.56;10562371;28;20039;-59
2023/06/13 19:12:45;;;;;;;2.65;1.70;;;;;;;23.46;25.13;99424.81;10547185;28;20138;-59
2023/06/13 19:17:47;;;;;;;3.72;1.70;;;;;;;23.24;25.59;99431.06;10553706;27;20050;-59
2023/06/13 19:22:49;;;;;;;3.63;1.60;;;;;;;23.06;26.02;99431.44;10546507;27;20455;-60
2023/06/13 19:27:52;;;;;;;4.13;1.58;;;;;;;22.77;26.55;99438.56;10550317;27;20040;-60
2023/06/13 19:33:04;;;;;;;3.70;1.63;;;;;;;22.52;26.68;99446.72;10547963;28;20039;-60
2023/06/13 19:38:07;;;;;;;3.50;1.92;;;;;;;22.38;27.10;99446.69;10548593;27;20585;-59
2023/06/13 19:43:09;;;;;;;3.00;1.65;;;;;;;22.33;27.63;99467.72;10528788;27;20134;-60
2023/06/13 19:48:12;;;;;;;3.60;1.80;;;;;;;22.19;27.82;99471.97;10547218;27;20540;-59
2023/06/13 19:53:14;;;;;;;3.28;1.70;;;;;;;21.94;28.71;99472.25;10547811;27;20047;-60
2023/06/13 19:58:20;;;;;;;3.33;1.83;;;;;;;21.76;28.69;99477.84;10544766;28;20050;-59
2023/06/13 20:03:23;;;;;;;3.55;1.92;;;;;;;21.66;29.22;99490.53;10548895;28;20130;-60
2023/06/13 20:08:25;;;;;;;3.47;1.98;;;;;;;21.47;29.41;99505.09;10552976;27;20146;-60
2023/06/13 20:13:28;;;;;;;3.25;1.90;;;;;;;21.28;29.76;99501.94;10528197;28;20047;-59
2023/06/13 20:18:30;;;;;;;2.40;1.70;;;;;;;21.13;30.31;99506.28;10554530;28;20313;-59
2023/06/13 20:23:32;;;;;;;2.88;1.77;;;;;;;20.72;30.89;99514.28;10533569;28;20051;-59
2023/06/13 20:28:34;;;;;;;3.35;1.75;;;;;;;20.69;31.12;99517.28;10554456;28;20047;-59
2023/06/13 20:33:36;;;;;;;3.55;1.77;;;;;;;20.55;31.51;99517.91;10553830;27;20044;-59
2023/06/13 20:38:39;;;;;;;2.72;1.75;;;;;;;20.45;31.58;99527.03;10553917;28;20109;-59
2023/06/13 20:43:41;;;;;;;3.80;2.10;;;;;;;19.95;32.18;99529.75;10553226;28;20048;-59
2023/06/13 20:48:45;;;;;;;2.78;1.70;;;;;;;19.96;32.32;99536.69;10552995;28;20100;-59
2023/06/13 20:53:47;;;;;;;4.03;1.85;;;;;;;19.87;32.79;99542.97;10552188;28;20104;-60
2023/06/13 20:58:49;;;;;;;3.20;1.80;;;;;;;19.70;33.26;99543.88;10547643;27;20092;-60
2023/06/13 21:03:51;;;;;;;3.00;2.00;;;;;;;19.56;33.49;99544.47;10549027;27;20097;-59
2023/06/13 21:08:54;;;;;;;3.33;1.88;;;;;;;19.27;34.18;99553.59;10548488;28;20075;-59
2023/06/13 21:13:56;;;;;;;3.38;1.90;;;;;;;19.08;34.39;99560.88;10547537;28;20036;-60
2023/06/13 21:19:00;;;;;;;3.72;2.00;;;;;;;19.06;34.71;99563.69;10550883;28;20516;-59
2023/06/13 21:24:02;;;;;;;3.65;1.73;;;;;;;18.87;35.01;99566.47;10546422;27;20043;-60
2023/06/13 21:29:04;;;;;;;3.33;1.70;;;;;;;18.74;35.57;99570.50;10531461;28;20279;-60
2023/06/13 21:34:06;;;;;;;3.13;1.70;;;;;;;18.61;35.52;99568.22;10550111;28;20079;-60
2023/06/13 21:39:08;;;;;;;3.00;2.00;;;;;;;18.44;36.00;99569.88;10547910;28;20150;-59
2023/06/13 21:44:10;;;;;;;3.40;2.03;;;;;;;18.13;36.69;99571.19;10516165;28;20040;-59
2023/06/13 21:49:12;;;;;;;3.05;1.65;;;;;;;18.09;36.92;99576.91;10549364;28;20046;-59
2023/06/13 21:54:14;;;;;;;3.47;1.95;;;;;;;17.91;37.05;99578.69;10546811;28;20384;-60
2023/06/13 21:59:15;;;;;;;4.03;2.10;;;;;;;17.77;37.78;99578.19;10548301;28;20247;-59
2023/06/13 22:04:17;;;;;;;3.70;1.83;;;;;;;17.68;37.96;99573.78;10548453;28;20113;-59
2023/06/13 22:09:20;;;;;;;3.22;1.90;;;;;;;17.33;38.15;99581.53;10530210;28;20489;-59
2023/06/13 22:14:25;;;;;;;2.85;1.80;;;;;;;16.90;39.29;99586.41;10546983;28;20047;-60
2023/06/13 22:19:26;;;;;;;4.03;2.00;;;;;;;16.94;39.23;99593.09;10531493;28;20059;-59
2023/06/13 22:24:28;;;;;;;3.63;2.10;;;;;;;16.68;39.78;99599.91;10551270;28;20044;-59
2023/06/13 22:29:32;;;;;;;3.03;1.80;;;;;;;16.73;40.04;99603.78;10549725;28;20477;-59
2023/06/13 22:34:34;;;;;;;3.97;2.10;;;;;;;16.41;40.28;99607.59;10523467;28;20039;-60
2023/06/13 22:39:35;;;;;;;3.58;1.95;;;;;;;16.32;40.72;99606.66;10547183;28;20634;-59
2023/06/13 22:44:37;;;;;;;2.45;1.70;;;;;;;16.15;41.02;99615.19;10531807;28;20804;-59
2023/06/13 22:49:40;;;;;;;3.58;2.00;;;;;;;16.20;41.02;99620.91;10537102;27;20062;-59
2023/06/13 22:54:43;;;;;;;3.50;1.90;;;;;;;15.87;41.70;99613.28;10555262;27;20549;-59
2023/06/13 22:59:47;;;;;;;3.78;2.30;;;;;;;15.64;42.13;99623.19;10556543;28;20087;-59
2023/06/13 23:04:50;;;;;;;2.88;1.88;;;;;;;15.78;41.96;99621.97;10557210;27;20075;-59
2023/06/13 23:09:52;;;;;;;3.95;2.17;;;;;;;15.82;42.35;99626.88;10556772;28;20104;-59
2023/06/13 23:14:54;;;;;;;4.15;2.08;;;;;;;15.82;42.44;99618.97;10557610;28;20392;-58
2023/06/13 23:19:57;;;;;;;5.13;2.10;;;;;;;15.77;42.45;99618.53;10556874;27;20475;-59
2023/06/13 23:24:59;;;;;;;6.72;2.30;;;;;;;15.70;42.73;99619.16;10556787;28;20044;-59
2023/06/13 23:30:04;;;;;;;4.38;1.92;;;;;;;15.67;42.97;99620.28;10554892;28;20563;-58
2023/06/13 23:35:07;;;;;;;3.63;1.90;;;;;;;15.70;43.09;99619.16;10555787;28;20103;-58
2023/06/13 23:40:13;;;;;;;3.92;1.95;;;;;;;15.57;43.86;99635.19;10554138;28;20047;-59
2023/06/13 23:45:15;;;;;;;3.40;2.05;;;;;;;15.39;43.91;99634.09;10568952;27;20126;-59
2023/06/13 23:50:19;;;;;;;3.25;2.03;;;;;;;15.29;44.07;99641.94;10554018;28;20074;-59
2023/06/13 23:55:22;;;;;;;3.78;2.28;;;;;;;15.14;44.74;99652.94;10551989;27;20104;-59
